createdAt,value
2017-09-01T00:00:04.213Z,0
2017-09-01T00:00:44.813Z,0
2017-09-01T00:01:25.446Z,0
2017-09-01T00:02:06.097Z,0
2017-09-01T00:02:46.728Z,0
2017-09-01T00:03:27.369Z,0
2017-09-01T00:04:08.000Z,0
2017-09-01T00:04:48.658Z,0
2017-09-01T00:05:29.378Z,0
2017-09-01T00:06:10.008Z,0
2017-09-01T00:06:50.627Z,0
2017-09-01T00:07:31.264Z,0
2017-09-01T00:08:11.890Z,0
2017-09-01T00:08:52.533Z,0
2017-09-01T00:09:33.165Z,0
2017-09-01T00:10:13.834Z,0
2017-09-01T00:10:54.501Z,0
2017-09-01T00:11:35.149Z,0
2017-09-01T00:12:15.798Z,0
2017-09-01T00:12:56.432Z,0
2017-09-01T00:13:37.056Z,0
2017-09-01T00:14:17.718Z,0
2017-09-01T00:14:58.352Z,0
2017-09-01T00:15:38.972Z,0
2017-09-01T00:16:19.620Z,0
2017-09-01T00:17:00.259Z,0
2017-09-01T00:17:40.888Z,0
2017-09-01T00:18:21.534Z,0
2017-09-01T00:19:02.165Z,0
2017-09-01T00:19:42.795Z,0
2017-09-01T00:20:23.417Z,0
2017-09-01T00:21:04.049Z,0
2017-09-01T00:21:44.657Z,0
2017-09-01T00:22:25.404Z,0
2017-09-01T00:23:06.036Z,0
2017-09-01T00:23:46.706Z,0
2017-09-01T00:24:27.321Z,0
2017-09-01T00:25:07.965Z,0
2017-09-01T00:25:48.613Z,0
2017-09-01T00:26:29.224Z,0
2017-09-01T00:27:09.840Z,0
2017-09-01T00:27:50.474Z,0
2017-09-01T00:28:31.099Z,0
2017-09-01T00:29:11.746Z,0
2017-09-01T00:29:52.587Z,0
2017-09-01T00:30:33.182Z,0
2017-09-01T00:31:13.819Z,0
2017-09-01T00:31:54.465Z,0
2017-09-01T00:32:35.121Z,0
2017-09-01T00:33:15.761Z,0
2017-09-01T00:33:56.405Z,0
2017-09-01T00:34:37.053Z,0
2017-09-01T00:35:17.672Z,0
2017-09-01T00:35:58.325Z,0
2017-09-01T00:36:38.934Z,0
2017-09-01T00:37:19.607Z,0
2017-09-01T00:38:00.208Z,0
2017-09-01T00:38:40.831Z,0
2017-09-01T00:39:21.447Z,0
2017-09-01T00:40:02.075Z,0
2017-09-01T00:40:42.697Z,0
2017-09-01T00:41:23.354Z,0
2017-09-01T00:42:03.984Z,0
2017-09-01T00:42:44.610Z,0
2017-09-01T00:43:25.611Z,0
2017-09-01T00:44:06.123Z,0
2017-09-01T00:44:47.092Z,0
2017-09-01T00:45:27.907Z,0
2017-09-01T00:46:09.551Z,0
2017-09-01T00:46:50.116Z,0
2017-09-01T00:47:30.999Z,0
2017-09-01T00:48:11.685Z,0
2017-09-01T00:48:52.420Z,0
2017-09-01T00:49:33.191Z,0
2017-09-01T00:50:13.974Z,0
2017-09-01T00:50:54.741Z,0
2017-09-01T00:51:35.466Z,0
2017-09-01T00:52:16.561Z,0
2017-09-01T00:52:57.565Z,0
2017-09-01T00:53:38.329Z,0
2017-09-01T00:54:19.457Z,0
2017-09-01T00:55:00.327Z,0
2017-09-01T00:55:41.262Z,0
2017-09-01T00:56:21.863Z,0
2017-09-01T00:57:02.562Z,0
2017-09-01T00:57:43.293Z,0
2017-09-01T00:58:24.686Z,0
2017-09-01T00:59:05.999Z,0
2017-09-01T00:59:46.745Z,0
2017-09-01T01:00:28.377Z,0
2017-09-01T01:01:09.049Z,0
2017-09-01T01:01:50.142Z,0
2017-09-01T01:02:31.200Z,0
2017-09-01T01:03:12.489Z,0
2017-09-01T01:03:53.355Z,0
2017-09-01T01:04:34.230Z,0
2017-09-01T01:05:15.024Z,0
2017-09-01T01:05:55.782Z,0
2017-09-01T01:06:36.481Z,0
2017-09-01T01:07:17.201Z,0
2017-09-01T01:07:57.921Z,0
2017-09-01T01:08:38.836Z,0
2017-09-01T01:09:19.401Z,0
2017-09-01T01:10:00.047Z,0
2017-09-01T01:10:40.785Z,0
2017-09-01T01:11:21.656Z,0
2017-09-01T01:12:02.396Z,0
2017-09-01T01:12:43.315Z,0
2017-09-01T01:13:23.953Z,0
2017-09-01T01:14:04.614Z,0
2017-09-01T01:14:45.350Z,0
2017-09-01T01:15:25.934Z,0
2017-09-01T01:16:06.745Z,0
2017-09-01T01:16:47.333Z,0
2017-09-01T01:17:28.062Z,0
2017-09-01T01:18:08.759Z,0
2017-09-01T01:18:49.436Z,0
2017-09-01T01:19:30.200Z,0
2017-09-01T01:20:10.875Z,0
2017-09-01T01:20:51.533Z,0
2017-09-01T01:21:32.187Z,0
2017-09-01T01:22:12.859Z,0
2017-09-01T01:22:53.678Z,0
2017-09-01T01:23:34.337Z,0
2017-09-01T01:24:15.022Z,0
2017-09-01T01:24:55.688Z,0
2017-09-01T01:25:36.551Z,0
2017-09-01T01:26:17.060Z,0
2017-09-01T01:26:57.893Z,0
2017-09-01T01:27:38.730Z,0
2017-09-01T01:28:19.411Z,0
2017-09-01T01:29:03.640Z,0
2017-09-01T01:42:04.375Z,0
2017-09-01T01:42:45.179Z,0
2017-09-01T01:43:26.063Z,0
2017-09-01T01:44:07.083Z,0
2017-09-01T01:44:48.199Z,0
2017-09-01T01:45:29.546Z,0
2017-09-01T01:46:10.731Z,0
2017-09-01T01:46:52.191Z,0
2017-09-01T01:47:36.436Z,0
2017-09-01T01:48:17.671Z,0
2017-09-01T01:48:59.585Z,0
2017-09-01T01:51:20.637Z,0
2017-09-01T01:52:01.820Z,0
2017-09-01T01:52:42.299Z,0
2017-09-01T01:53:23.110Z,0
2017-09-01T01:54:04.005Z,0
2017-09-01T01:54:44.546Z,0
2017-09-01T01:55:25.274Z,0
2017-09-01T01:56:06.085Z,0
2017-09-01T01:56:46.806Z,0
2017-09-01T01:57:27.663Z,0
2017-09-01T01:58:08.466Z,0
2017-09-01T01:58:49.567Z,0
2017-09-01T01:59:30.686Z,0
2017-09-01T02:00:11.317Z,0
2017-09-01T02:00:52.221Z,0
2017-09-01T02:01:32.925Z,0
2017-09-01T02:02:13.893Z,0
2017-09-01T02:02:54.652Z,0
2017-09-01T02:03:35.564Z,0
2017-09-01T02:04:16.673Z,0
2017-09-01T02:04:58.053Z,0
2017-09-01T02:05:38.592Z,0
2017-09-01T02:06:19.296Z,0
2017-09-01T02:07:00.163Z,0
2017-09-01T02:07:40.939Z,0
2017-09-01T02:08:21.625Z,0
2017-09-01T02:09:02.927Z,0
2017-09-01T02:09:43.638Z,0
2017-09-01T02:12:03.860Z,0
2017-09-01T02:12:44.591Z,0
2017-09-01T02:13:25.257Z,0
2017-09-01T02:14:05.988Z,0
2017-09-01T02:14:46.671Z,0
2017-09-01T02:15:27.358Z,0
2017-09-01T02:16:07.960Z,0
2017-09-01T02:16:48.730Z,0
2017-09-01T02:17:29.291Z,0
2017-09-01T02:18:10.024Z,0
2017-09-01T02:18:50.607Z,0
2017-09-01T02:19:31.244Z,0
2017-09-01T02:20:11.917Z,0
2017-09-01T02:20:52.573Z,0
2017-09-01T02:21:33.241Z,0
2017-09-01T02:22:13.887Z,0
2017-09-01T02:22:54.533Z,0
2017-09-01T02:23:35.366Z,0
2017-09-01T02:24:15.924Z,0
2017-09-01T02:24:56.797Z,0
2017-09-01T02:25:37.433Z,0
2017-09-01T02:26:18.101Z,0
2017-09-01T02:26:58.755Z,0
2017-09-01T02:27:39.571Z,0
2017-09-01T02:28:20.339Z,0
2017-09-01T02:29:01.015Z,0
2017-09-01T02:29:41.668Z,0
2017-09-01T02:30:22.285Z,0
2017-09-01T02:31:02.942Z,0
2017-09-01T02:31:43.620Z,0
2017-09-01T02:32:24.283Z,0
2017-09-01T02:33:05.015Z,0
2017-09-01T02:33:45.782Z,0
2017-09-01T02:34:26.487Z,0
2017-09-01T02:35:07.124Z,0
2017-09-01T02:35:47.846Z,0
2017-09-01T02:36:28.474Z,0
2017-09-01T02:37:09.068Z,0
2017-09-01T02:37:49.743Z,0
2017-09-01T02:38:30.491Z,0
2017-09-01T02:39:11.018Z,0
2017-09-01T02:39:51.758Z,0
2017-09-01T02:40:32.521Z,0
2017-09-01T02:41:13.133Z,0
2017-09-01T02:41:53.788Z,0
2017-09-01T02:42:34.469Z,0
2017-09-01T02:43:15.241Z,0
2017-09-01T02:43:55.867Z,0
2017-09-01T02:44:36.507Z,0
2017-09-01T02:45:17.290Z,0
2017-09-01T02:45:58.081Z,0
2017-09-01T02:46:38.651Z,0
2017-09-01T02:47:19.320Z,0
2017-09-01T02:47:59.956Z,0
2017-09-01T02:48:40.676Z,0
2017-09-01T02:49:21.336Z,0
2017-09-01T02:50:01.938Z,0
2017-09-01T02:50:42.590Z,0
2017-09-01T02:51:23.402Z,0
2017-09-01T02:52:04.051Z,0
2017-09-01T02:52:44.699Z,0
2017-09-01T02:53:25.461Z,0
2017-09-01T02:54:06.090Z,0
2017-09-01T02:54:46.739Z,0
2017-09-01T02:55:27.332Z,0
2017-09-01T02:56:08.099Z,0
2017-09-01T02:56:49.088Z,0
2017-09-01T02:57:30.011Z,0
2017-09-01T02:58:10.921Z,0
2017-09-01T02:58:52.481Z,0
2017-09-01T02:59:33.640Z,0
2017-09-01T03:06:15.152Z,0
2017-09-01T03:06:55.768Z,0
2017-09-01T03:07:36.499Z,0
2017-09-01T03:08:17.124Z,0
2017-09-01T03:08:57.789Z,0
2017-09-01T03:09:38.555Z,0
2017-09-01T03:10:19.202Z,0
2017-09-01T03:10:59.840Z,0
2017-09-01T03:11:40.534Z,0
2017-09-01T03:12:21.035Z,0
2017-09-01T03:13:01.793Z,0
2017-09-01T03:13:42.515Z,0
2017-09-01T03:14:23.109Z,0
2017-09-01T03:15:03.785Z,0
2017-09-01T03:15:44.501Z,0
2017-09-01T03:16:25.272Z,0
2017-09-01T03:17:05.845Z,0
2017-09-01T03:17:46.521Z,0
2017-09-01T03:18:27.186Z,0
2017-09-01T03:19:07.822Z,0
2017-09-01T03:19:48.585Z,0
2017-09-01T03:20:29.548Z,0
2017-09-01T03:21:10.451Z,0
2017-09-01T03:21:51.102Z,0
2017-09-01T03:22:31.873Z,0
2017-09-01T03:23:12.382Z,0
2017-09-01T03:23:53.024Z,0
2017-09-01T03:24:33.666Z,0
2017-09-01T03:25:14.267Z,0
2017-09-01T03:25:54.938Z,0
2017-09-01T03:26:35.553Z,0
2017-09-01T03:27:16.172Z,0
2017-09-01T03:27:56.845Z,0
2017-09-01T03:28:37.460Z,0
2017-09-01T03:29:18.077Z,0
2017-09-01T03:29:58.696Z,0
2017-09-01T03:30:39.337Z,0
2017-09-01T03:31:19.998Z,0
2017-09-01T03:32:00.584Z,0
2017-09-01T03:32:41.205Z,0
2017-09-01T03:33:21.866Z,0
2017-09-01T03:34:02.493Z,0
2017-09-01T03:34:43.135Z,0
2017-09-01T03:35:23.748Z,0
2017-09-01T03:36:04.385Z,0
2017-09-01T03:36:45.008Z,0
2017-09-01T03:37:25.651Z,0
2017-09-01T03:38:06.261Z,0
2017-09-01T03:38:46.881Z,0
2017-09-01T03:39:27.504Z,0
2017-09-01T03:40:08.150Z,0
2017-09-01T03:40:48.778Z,0
2017-09-01T03:41:29.410Z,0
2017-09-01T03:42:10.037Z,0
2017-09-01T03:42:50.702Z,0
2017-09-01T03:43:31.349Z,0
2017-09-01T03:44:11.971Z,0
2017-09-01T03:44:52.611Z,0
2017-09-01T03:45:33.292Z,0
2017-09-01T03:46:13.916Z,0
2017-09-01T03:46:54.524Z,0
2017-09-01T03:47:35.164Z,0
2017-09-01T03:48:15.832Z,0
2017-09-01T03:48:56.581Z,0
2017-09-01T03:49:37.204Z,0
2017-09-01T03:50:17.817Z,0
2017-09-01T03:50:58.446Z,0
2017-09-01T03:51:39.048Z,0
2017-09-01T03:52:19.674Z,0
2017-09-01T03:53:00.311Z,0
2017-09-01T03:53:40.954Z,0
2017-09-01T03:54:21.593Z,0
2017-09-01T03:55:02.208Z,0
2017-09-01T03:55:42.858Z,0
2017-09-01T03:56:23.500Z,0
2017-09-01T03:57:04.128Z,0
2017-09-01T03:57:44.749Z,0
2017-09-01T03:58:25.358Z,0
2017-09-01T03:59:06.013Z,0
2017-09-01T03:59:46.626Z,0
2017-09-01T04:00:27.257Z,0
2017-09-01T04:01:07.872Z,0
2017-09-01T04:01:48.482Z,0
2017-09-01T04:02:29.112Z,0
2017-09-01T04:03:09.747Z,0
2017-09-01T04:03:50.431Z,0
2017-09-01T04:04:31.160Z,0
2017-09-01T04:05:11.806Z,0
2017-09-01T04:05:52.445Z,0
2017-09-01T04:06:33.088Z,0
2017-09-01T04:07:13.706Z,0
2017-09-01T04:07:54.332Z,0
2017-09-01T04:08:34.941Z,0
2017-09-01T04:09:15.580Z,0
2017-09-01T04:09:56.226Z,0
2017-09-01T04:10:36.859Z,0
2017-09-01T04:11:17.529Z,0
2017-09-01T04:11:58.134Z,0
2017-09-01T04:12:38.750Z,0
2017-09-01T04:13:19.365Z,0
2017-09-01T04:13:59.990Z,0
2017-09-01T04:14:40.598Z,0
2017-09-01T04:15:21.206Z,0
2017-09-01T04:16:01.853Z,0
2017-09-01T04:16:42.467Z,0
2017-09-01T04:17:23.122Z,0
2017-09-01T04:18:03.735Z,0
2017-09-01T04:18:44.371Z,0
2017-09-01T04:19:25.066Z,0
2017-09-01T04:20:05.699Z,0
2017-09-01T04:20:46.319Z,0
2017-09-01T04:21:26.963Z,4
2017-09-01T04:22:07.579Z,4
2017-09-01T04:22:48.212Z,4
2017-09-01T04:23:28.847Z,4
2017-09-01T04:24:09.512Z,4
2017-09-01T04:24:50.140Z,4
2017-09-01T04:25:30.801Z,4
2017-09-01T04:26:11.448Z,8
2017-09-01T04:26:52.041Z,4
2017-09-01T04:27:32.739Z,4
2017-09-01T04:28:13.376Z,8
2017-09-01T04:28:53.978Z,8
2017-09-01T04:29:34.614Z,8
2017-09-01T04:30:15.264Z,8
2017-09-01T04:30:55.893Z,12
2017-09-01T04:31:36.517Z,8
2017-09-01T04:32:17.183Z,12
2017-09-01T04:32:57.804Z,12
2017-09-01T04:33:38.434Z,16
2017-09-01T04:34:19.049Z,16
2017-09-01T04:34:59.697Z,16
2017-09-01T04:35:40.345Z,20
2017-09-01T04:36:20.957Z,20
2017-09-01T04:37:01.596Z,24
2017-09-01T04:37:42.202Z,24
2017-09-01T04:38:22.868Z,24
2017-09-01T04:39:03.478Z,28
2017-09-01T04:39:44.104Z,28
2017-09-01T04:40:24.775Z,32
2017-09-01T04:41:05.372Z,36
2017-09-01T04:41:46.040Z,36
2017-09-01T04:42:26.680Z,40
2017-09-01T04:43:07.340Z,40
2017-09-01T04:43:48.023Z,40
2017-09-01T04:44:28.663Z,44
2017-09-01T04:45:09.300Z,48
2017-09-01T04:45:49.930Z,48
2017-09-01T04:46:30.572Z,48
2017-09-01T04:47:11.168Z,48
2017-09-01T04:47:51.788Z,48
2017-09-01T04:48:32.424Z,48
2017-09-01T04:49:13.066Z,48
2017-09-01T04:49:53.714Z,48
2017-09-01T04:50:34.356Z,52
2017-09-01T04:51:15.016Z,52
2017-09-01T04:51:55.610Z,60
2017-09-01T04:52:36.264Z,64
2017-09-01T04:53:16.871Z,68
2017-09-01T04:53:57.530Z,72
2017-09-01T04:54:38.163Z,80
2017-09-01T04:55:18.830Z,88
2017-09-01T04:55:59.426Z,96
2017-09-01T04:56:40.167Z,100
2017-09-01T04:57:20.796Z,104
2017-09-01T04:58:01.424Z,112
2017-09-01T04:58:42.046Z,124
2017-09-01T04:59:22.705Z,128
2017-09-01T05:00:03.408Z,132
2017-09-01T05:00:44.069Z,128
2017-09-01T05:01:24.718Z,128
2017-09-01T05:02:05.363Z,132
2017-09-01T05:02:46.018Z,132
2017-09-01T05:03:26.636Z,132
2017-09-01T05:04:07.291Z,128
2017-09-01T05:04:47.895Z,120
2017-09-01T05:05:28.526Z,116
2017-09-01T05:06:09.149Z,108
2017-09-01T05:06:49.762Z,104
2017-09-01T05:07:31.880Z,108
2017-09-01T05:08:12.514Z,108
2017-09-01T05:08:53.130Z,112
2017-09-01T05:09:33.787Z,116
2017-09-01T05:10:14.410Z,120
2017-09-01T05:10:55.053Z,128
2017-09-01T05:11:35.662Z,144
2017-09-01T05:12:16.308Z,156
2017-09-01T05:12:56.945Z,172
2017-09-01T05:13:37.581Z,196
2017-09-01T05:14:18.294Z,224
2017-09-01T05:14:58.934Z,240
2017-09-01T05:15:39.563Z,244
2017-09-01T05:16:20.212Z,256
2017-09-01T05:17:00.825Z,268
2017-09-01T05:17:41.478Z,268
2017-09-01T05:18:22.275Z,272
2017-09-01T05:19:02.963Z,284
2017-09-01T05:19:43.710Z,300
2017-09-01T05:20:24.443Z,308
2017-09-01T05:21:05.180Z,312
2017-09-01T05:21:45.776Z,312
2017-09-01T05:22:26.393Z,324
2017-09-01T05:23:07.081Z,340
2017-09-01T05:23:47.733Z,352
2017-09-01T05:24:28.352Z,356
2017-09-01T05:25:08.986Z,368
2017-09-01T05:25:49.915Z,372
2017-09-01T05:26:30.643Z,392
2017-09-01T05:27:11.303Z,428
2017-09-01T05:27:51.952Z,460
2017-09-01T05:28:32.589Z,504
2017-09-01T05:29:13.238Z,536
2017-09-01T05:29:53.854Z,544
2017-09-01T05:30:34.513Z,552
2017-09-01T05:31:15.157Z,560
2017-09-01T05:31:55.778Z,580
2017-09-01T05:32:36.403Z,604
2017-09-01T05:33:17.055Z,616
2017-09-01T05:33:57.688Z,620
2017-09-01T05:34:38.337Z,628
2017-09-01T05:35:19.047Z,624
2017-09-01T05:35:59.808Z,632
2017-09-01T05:36:40.458Z,628
2017-09-01T05:37:21.094Z,632
2017-09-01T05:38:01.735Z,644
2017-09-01T05:38:42.419Z,660
2017-09-01T05:39:23.089Z,672
2017-09-01T05:40:03.694Z,684
2017-09-01T05:40:44.472Z,676
2017-09-01T05:41:25.115Z,708
2017-09-01T05:42:05.967Z,752
2017-09-01T05:42:46.599Z,756
2017-09-01T05:43:27.260Z,780
2017-09-01T05:44:07.901Z,764
2017-09-01T05:44:48.533Z,776
2017-09-01T05:45:29.194Z,784
2017-09-01T05:46:09.821Z,788
2017-09-01T05:46:50.559Z,792
2017-09-01T05:47:31.215Z,792
2017-09-01T05:48:11.940Z,776
2017-09-01T05:48:52.613Z,752
2017-09-01T05:49:33.292Z,732
2017-09-01T05:50:13.902Z,716
2017-09-01T05:50:54.556Z,704
2017-09-01T05:51:35.190Z,680
2017-09-01T05:52:15.831Z,680
2017-09-01T05:52:56.518Z,680
2017-09-01T05:53:37.166Z,688
2017-09-01T05:54:17.807Z,700
2017-09-01T05:54:58.478Z,724
2017-09-01T05:55:39.160Z,732
2017-09-01T05:56:19.797Z,748
2017-09-01T05:57:00.418Z,736
2017-09-01T05:57:41.072Z,732
2017-09-01T05:58:21.698Z,740
2017-09-01T05:59:02.334Z,740
2017-09-01T05:59:43.134Z,740
2017-09-01T06:00:23.784Z,732
2017-09-01T06:01:04.387Z,744
2017-09-01T06:01:45.002Z,744
2017-09-01T06:02:25.681Z,744
2017-09-01T06:03:06.284Z,764
2017-09-01T06:03:46.935Z,768
2017-09-01T06:04:27.607Z,768
2017-09-01T06:05:08.262Z,776
2017-09-01T06:05:48.921Z,780
2017-09-01T06:06:29.585Z,792
2017-09-01T06:07:10.220Z,784
2017-09-01T06:07:50.886Z,796
2017-09-01T06:08:31.535Z,808
2017-09-01T06:09:12.221Z,816
2017-09-01T06:09:52.877Z,828
2017-09-01T06:10:33.497Z,848
2017-09-01T06:11:14.127Z,880
2017-09-01T06:11:54.806Z,872
2017-09-01T06:12:35.463Z,908
2017-09-01T06:13:16.169Z,952
2017-09-01T06:13:56.794Z,964
2017-09-01T06:14:37.476Z,996
2017-09-01T06:15:18.122Z,1020
2017-09-01T06:15:58.747Z,1096
2017-09-01T06:16:39.411Z,1108
2017-09-01T06:17:20.040Z,1180
2017-09-01T06:18:00.701Z,1220
2017-09-01T06:18:41.328Z,1228
2017-09-01T06:19:21.938Z,1240
2017-09-01T06:20:02.575Z,1268
2017-09-01T06:20:44.043Z,1280
2017-09-01T06:21:24.708Z,1312
2017-09-01T06:22:05.376Z,1324
2017-09-01T06:22:46.027Z,1332
2017-09-01T06:23:26.680Z,1320
2017-09-01T06:24:07.341Z,1344
2017-09-01T06:24:48.008Z,1356
2017-09-01T06:25:28.662Z,1372
2017-09-01T06:26:09.322Z,1396
2017-09-01T06:26:49.973Z,1400
2017-09-01T06:27:30.611Z,1456
2017-09-01T06:28:11.248Z,1512
2017-09-01T06:28:51.910Z,1556
2017-09-01T06:29:32.552Z,1572
2017-09-01T06:30:13.217Z,1544
2017-09-01T06:30:53.885Z,1524
2017-09-01T06:31:34.617Z,1480
2017-09-01T06:32:15.246Z,1448
2017-09-01T06:32:55.930Z,1384
2017-09-01T06:33:36.595Z,1308
2017-09-01T06:34:17.197Z,1252
2017-09-01T06:34:57.850Z,1152
2017-09-01T06:35:38.452Z,1084
2017-09-01T06:36:19.131Z,1060
2017-09-01T06:36:59.761Z,1040
2017-09-01T06:37:40.408Z,1052
2017-09-01T06:38:21.028Z,1108
2017-09-01T06:39:01.658Z,1124
2017-09-01T06:39:42.281Z,1156
2017-09-01T06:40:22.930Z,1168
2017-09-01T06:41:03.531Z,1184
2017-09-01T06:41:44.185Z,1216
2017-09-01T06:42:24.833Z,1236
2017-09-01T06:43:05.540Z,1292
2017-09-01T06:43:46.167Z,1388
2017-09-01T06:44:26.871Z,1480
2017-09-01T06:45:07.495Z,1540
2017-09-01T06:45:48.175Z,1596
2017-09-01T06:46:28.824Z,1628
2017-09-01T06:47:09.460Z,1632
2017-09-01T06:47:50.101Z,1648
2017-09-01T06:48:30.760Z,1668
2017-09-01T06:49:11.377Z,1648
2017-09-01T06:49:52.003Z,1628
2017-09-01T06:50:32.653Z,1596
2017-09-01T06:51:13.277Z,1564
2017-09-01T06:51:53.925Z,1540
2017-09-01T06:52:34.614Z,1480
2017-09-01T06:53:15.251Z,1464
2017-09-01T06:53:55.906Z,1436
2017-09-01T06:54:36.528Z,1444
2017-09-01T06:55:17.180Z,1464
2017-09-01T06:55:57.831Z,1500
2017-09-01T06:56:38.464Z,1568
2017-09-01T06:57:19.108Z,1600
2017-09-01T06:57:59.822Z,1696
2017-09-01T06:58:40.479Z,1772
2017-09-01T06:59:21.140Z,1820
2017-09-01T07:00:01.767Z,1840
2017-09-01T07:00:42.407Z,1836
2017-09-01T07:01:23.044Z,1848
2017-09-01T07:02:03.678Z,1832
2017-09-01T07:02:44.309Z,1812
2017-09-01T07:03:24.944Z,1820
2017-09-01T07:04:05.601Z,1848
2017-09-01T07:04:46.264Z,1908
2017-09-01T07:05:26.889Z,1936
2017-09-01T07:06:07.515Z,1964
2017-09-01T07:06:48.125Z,2048
2017-09-01T07:07:28.765Z,2068
2017-09-01T07:08:09.544Z,2140
2017-09-01T07:08:50.197Z,2224
2017-09-01T07:09:30.844Z,2268
2017-09-01T07:10:11.531Z,2380
2017-09-01T07:10:52.187Z,2488
2017-09-01T07:11:32.822Z,2576
2017-09-01T07:12:13.723Z,2640
2017-09-01T07:12:54.353Z,2724
2017-09-01T07:13:34.965Z,2712
2017-09-01T07:14:15.609Z,2804
2017-09-01T07:14:56.251Z,2860
2017-09-01T07:15:36.870Z,2880
2017-09-01T07:16:17.497Z,2912
2017-09-01T07:16:58.109Z,2928
2017-09-01T07:17:38.707Z,2964
2017-09-01T07:18:19.340Z,2980
2017-09-01T07:18:59.990Z,2968
2017-09-01T07:19:40.615Z,2976
2017-09-01T07:20:21.256Z,2948
2017-09-01T07:21:01.908Z,2996
2017-09-01T07:21:42.606Z,2988
2017-09-01T07:22:23.233Z,2992
2017-09-01T07:23:03.863Z,3016
2017-09-01T07:23:44.494Z,3020
2017-09-01T07:24:25.128Z,3064
2017-09-01T07:25:05.779Z,3120
2017-09-01T07:25:46.412Z,3124
2017-09-01T07:26:27.202Z,3176
2017-09-01T07:27:07.860Z,3168
2017-09-01T07:27:48.517Z,3184
2017-09-01T07:28:29.187Z,3224
2017-09-01T07:29:09.831Z,3212
2017-09-01T07:29:50.490Z,3272
2017-09-01T07:30:31.110Z,3296
2017-09-01T07:31:11.733Z,3352
2017-09-01T07:31:52.379Z,3348
2017-09-01T07:32:33.021Z,3404
2017-09-01T07:33:13.670Z,3436
2017-09-01T07:33:54.326Z,3400
2017-09-01T07:34:34.961Z,3452
2017-09-01T07:35:15.630Z,3428
2017-09-01T07:35:56.268Z,3512
2017-09-01T07:36:36.899Z,3508
2017-09-01T07:37:17.508Z,3504
2017-09-01T07:37:58.150Z,3560
2017-09-01T07:38:38.840Z,3572
2017-09-01T07:39:19.620Z,3548
2017-09-01T07:40:00.191Z,3556
2017-09-01T07:40:40.847Z,3532
2017-09-01T07:41:21.506Z,3560
2017-09-01T07:42:02.097Z,3560
2017-09-01T07:42:42.739Z,3516
2017-09-01T07:43:23.387Z,3504
2017-09-01T07:44:04.040Z,3420
2017-09-01T07:44:44.691Z,3368
2017-09-01T07:45:25.329Z,3352
2017-09-01T07:46:05.976Z,3252
2017-09-01T07:46:46.581Z,3212
2017-09-01T07:47:27.206Z,3208
2017-09-01T07:48:07.955Z,3248
2017-09-01T07:48:48.554Z,3272
2017-09-01T07:49:29.251Z,3260
2017-09-01T07:50:09.895Z,3320
2017-09-01T07:50:50.509Z,3360
2017-09-01T07:51:31.161Z,3352
2017-09-01T07:52:11.825Z,3440
2017-09-01T07:52:52.418Z,3428
2017-09-01T07:53:33.169Z,3372
2017-09-01T07:54:13.799Z,3428
2017-09-01T07:54:54.457Z,3408
2017-09-01T07:55:35.119Z,3360
2017-09-01T07:56:15.745Z,3420
2017-09-01T07:56:56.380Z,3460
2017-09-01T07:57:37.021Z,3468
2017-09-01T07:58:17.623Z,3476
2017-09-01T07:58:58.236Z,3452
2017-09-01T07:59:38.900Z,3524
2017-09-01T08:00:19.612Z,3560
2017-09-01T08:01:00.323Z,3592
2017-09-01T08:01:41.036Z,3616
2017-09-01T08:02:21.659Z,3672
2017-09-01T08:03:02.273Z,3680
2017-09-01T08:03:42.910Z,3800
2017-09-01T08:04:23.580Z,3816
2017-09-01T08:05:04.173Z,3776
2017-09-01T08:05:44.804Z,3804
2017-09-01T08:06:25.431Z,3840
2017-09-01T08:07:06.067Z,3708
2017-09-01T08:07:46.750Z,3728
2017-09-01T08:08:27.417Z,3688
2017-09-01T08:09:08.120Z,3648
2017-09-01T08:09:48.657Z,3648
2017-09-01T08:10:29.267Z,3604
2017-09-01T08:11:09.916Z,3564
2017-09-01T08:11:50.555Z,3476
2017-09-01T08:12:31.200Z,3492
2017-09-01T08:13:11.802Z,3440
2017-09-01T08:13:52.423Z,3452
2017-09-01T08:14:33.052Z,3424
2017-09-01T08:15:13.672Z,3496
2017-09-01T08:15:54.303Z,3516
2017-09-01T08:16:34.949Z,3560
2017-09-01T08:17:15.631Z,3628
2017-09-01T08:17:56.280Z,3676
2017-09-01T08:18:36.886Z,3700
2017-09-01T08:19:17.561Z,3756
2017-09-01T08:19:58.244Z,3760
2017-09-01T08:20:38.869Z,3792
2017-09-01T08:21:19.527Z,3876
2017-09-01T08:22:00.203Z,3872
2017-09-01T08:22:41.019Z,3864
2017-09-01T08:23:21.671Z,3900
2017-09-01T08:24:02.271Z,3916
2017-09-01T08:24:42.890Z,3936
2017-09-01T08:25:23.531Z,3940
2017-09-01T08:26:04.159Z,3956
2017-09-01T08:26:44.811Z,4000
2017-09-01T08:27:25.530Z,3972
2017-09-01T08:28:06.161Z,4000
2017-09-01T08:28:46.815Z,4036
2017-09-01T08:29:27.474Z,4076
2017-09-01T08:30:08.134Z,4104
2017-09-01T08:30:48.764Z,4144
2017-09-01T08:31:29.431Z,4128
2017-09-01T08:32:10.087Z,4168
2017-09-01T08:32:50.779Z,4260
2017-09-01T08:33:31.376Z,4272
2017-09-01T08:34:12.053Z,4300
2017-09-01T08:34:52.689Z,4312
2017-09-01T08:35:33.343Z,4328
2017-09-01T08:36:13.990Z,4296
2017-09-01T08:36:54.629Z,4288
2017-09-01T08:37:35.276Z,4352
2017-09-01T08:38:15.929Z,4364
2017-09-01T08:38:56.567Z,4388
2017-09-01T08:39:37.307Z,4472
2017-09-01T08:40:17.978Z,4488
2017-09-01T08:40:58.640Z,4472
2017-09-01T08:41:39.281Z,4440
2017-09-01T08:42:19.969Z,4408
2017-09-01T08:43:00.596Z,4376
2017-09-01T08:43:41.224Z,4320
2017-09-01T08:44:21.845Z,4332
2017-09-01T08:45:02.551Z,4336
2017-09-01T08:45:43.148Z,4308
2017-09-01T08:46:23.758Z,4348
2017-09-01T08:47:04.409Z,4440
2017-09-01T08:47:45.188Z,4484
2017-09-01T08:48:25.797Z,4620
2017-09-01T08:49:06.461Z,4584
2017-09-01T08:49:47.097Z,4580
2017-09-01T08:50:27.806Z,4500
2017-09-01T08:51:08.514Z,4540
2017-09-01T08:51:49.159Z,4464
2017-09-01T08:52:29.810Z,4416
2017-09-01T08:53:10.484Z,4444
2017-09-01T08:53:51.101Z,4396
2017-09-01T08:54:31.800Z,4376
2017-09-01T08:55:12.429Z,4360
2017-09-01T08:55:53.066Z,4364
2017-09-01T08:56:33.706Z,4344
2017-09-01T08:57:14.372Z,4400
2017-09-01T08:57:55.032Z,4472
2017-09-01T08:58:35.714Z,4604
2017-09-01T08:59:16.361Z,4632
2017-09-01T08:59:57.075Z,4716
2017-09-01T09:00:37.691Z,4688
2017-09-01T09:01:18.377Z,4624
2017-09-01T09:01:58.961Z,4684
2017-09-01T09:02:39.618Z,4688
2017-09-01T09:03:20.260Z,4668
2017-09-01T09:04:00.921Z,4636
2017-09-01T09:04:41.535Z,4608
2017-09-01T09:05:22.207Z,4584
2017-09-01T09:06:02.836Z,4516
2017-09-01T09:06:43.469Z,4576
2017-09-01T09:07:24.222Z,4628
2017-09-01T09:08:04.831Z,4732
2017-09-01T09:08:45.356Z,4796
2017-09-01T09:09:25.892Z,4800
2017-09-01T09:10:06.446Z,4700
2017-09-01T09:10:46.980Z,4528
2017-09-01T09:11:27.682Z,4268
2017-09-01T09:12:08.079Z,4096
2017-09-01T09:12:48.652Z,4076
2017-09-01T09:13:29.345Z,4044
2017-09-01T09:14:09.825Z,3912
2017-09-01T09:14:50.509Z,3820
2017-09-01T09:15:30.912Z,3756
2017-09-01T09:16:11.522Z,3732
2017-09-01T09:16:52.118Z,3804
2017-09-01T09:17:32.599Z,3936
2017-09-01T09:18:13.181Z,4108
2017-09-01T09:18:53.770Z,4196
2017-09-01T09:19:34.286Z,4300
2017-09-01T09:20:14.840Z,4300
2017-09-01T09:20:55.406Z,4384
2017-09-01T09:21:36.104Z,4404
2017-09-01T09:22:16.664Z,4532
2017-09-01T09:22:57.157Z,4712
2017-09-01T09:23:37.642Z,4712
2017-09-01T09:24:18.229Z,4832
2017-09-01T09:24:58.765Z,5020
2017-09-01T09:25:39.378Z,5032
2017-09-01T09:26:19.963Z,5068
2017-09-01T09:27:00.519Z,5092
2017-09-01T09:27:41.071Z,5180
2017-09-01T09:28:21.668Z,5136
2017-09-01T09:29:02.161Z,5144
2017-09-01T09:29:42.692Z,5048
2017-09-01T09:30:23.577Z,4984
2017-09-01T09:31:04.630Z,4972
2017-09-01T09:31:45.535Z,4848
2017-09-01T09:32:26.206Z,4796
2017-09-01T09:33:06.770Z,4808
2017-09-01T09:33:47.315Z,4868
2017-09-01T09:34:27.869Z,4996
2017-09-01T09:35:08.446Z,4812
2017-09-01T09:35:49.069Z,4972
2017-09-01T09:36:29.632Z,5008
2017-09-01T09:37:10.172Z,4940
2017-09-01T09:37:50.717Z,4864
2017-09-01T09:38:31.300Z,4948
2017-09-01T09:39:11.803Z,5220
2017-09-01T09:39:52.377Z,5304
2017-09-01T09:40:32.969Z,4948
2017-09-01T09:41:13.455Z,4932
2017-09-01T09:41:54.068Z,4680
2017-09-01T09:42:34.528Z,4716
2017-09-01T09:43:15.058Z,4572
2017-09-01T09:43:55.634Z,4624
2017-09-01T09:44:36.158Z,4844
2017-09-01T09:45:16.737Z,4888
2017-09-01T09:45:57.266Z,4560
2017-09-01T09:46:37.802Z,4636
2017-09-01T09:47:18.362Z,4852
2017-09-01T09:47:58.898Z,4720
2017-09-01T09:48:39.795Z,4632
2017-09-01T09:49:20.570Z,4952
2017-09-01T09:50:01.218Z,4852
2017-09-01T09:50:41.755Z,4812
2017-09-01T09:51:22.341Z,4788
2017-09-01T09:52:02.867Z,4720